CheckWX is a tool to help pilots better visualize weather data.  It is not intended as a substitute for an official pre-flight weather briefing.

21:57:21 UTC

0J4 METAR
Florala Municipal Airport
Florala, Alabama, USA
Current

59 mins ago

K0J4 232058Z AUTO 19015G22KT 10SM CLR 26/18 A3002 RMK AO2 SLP162 T02610178 56015
Observed
Feb-23 @ 20:58 UTC
Wind
  • 190° at 15 KTS
  • Gusting to 22 KTS
Visibility
10 SM
Flight Rules
VFR
Cloud Levels
  • Clear skies
Temperature
26°C / 79°F
Dewpoint
18°C / 64°F
Humidity
61%
Altimeter
30.02" Hg
Pressure
1016.2 hPa
Previous

2 hours ago

K0J4 231958Z AUTO 19012KT 10SM SCT032 27/18 A3003 RMK AO2 SLP165 T02670183
Observed
Feb-23 @ 19:58 UTC
Wind
  • 190° at 12 KTS
Visibility
10 SM
Flight Rules
VFR
Cloud Levels
  • Scattered at 3,200' AGL
Temperature
27°C / 81°F
Dewpoint
18°C / 64°F
Humidity
58%
Altimeter
30.03" Hg
Pressure
1016.5 hPa
Previous

3 hours ago

K0J4 231858Z AUTO 22014G22KT 10SM FEW036 28/17 A3004 RMK AO2 SLP169 T02780172
Observed
Feb-23 @ 18:58 UTC
Wind
  • 220° at 14 KTS
  • Gusting to 22 KTS
Visibility
10 SM
Flight Rules
VFR
Cloud Levels
  • Few at 3,600' AGL
Temperature
28°C / 82°F
Dewpoint
17°C / 63°F
Humidity
51%
Altimeter
30.04" Hg
Pressure
1016.9 hPa